sensor_id;sensor_type;location;lat;lon;timestamp;temperature;humidity
65864;SHT30;52639;51.180;20.460;2024-01-07T00:01:59;-4.48;92.72
65864;SHT30;52639;51.180;20.460;2024-01-07T00:06:02;-4.54;92.47
65864;SHT30;52639;51.180;20.460;2024-01-07T00:10:05;-4.53;92.39
65864;SHT30;52639;51.180;20.460;2024-01-07T00:14:15;-4.52;92.96
65864;SHT30;52639;51.180;20.460;2024-01-07T00:18:18;-4.59;92.11
65864;SHT30;52639;51.180;20.460;2024-01-07T00:22:22;-4.54;92.66
65864;SHT30;52639;51.180;20.460;2024-01-07T00:26:26;-4.54;92.43
65864;SHT30;52639;51.180;20.460;2024-01-07T00:30:31;-4.61;91.28
65864;SHT30;52639;51.180;20.460;2024-01-07T00:34:34;-4.63;91.42
65864;SHT30;52639;51.180;20.460;2024-01-07T00:38:37;-4.67;91.30
65864;SHT30;52639;51.180;20.460;2024-01-07T00:42:40;-4.63;91.68
65864;SHT30;52639;51.180;20.460;2024-01-07T00:46:46;-4.63;91.41
65864;SHT30;52639;51.180;20.460;2024-01-07T00:50:50;-4.74;90.80
65864;SHT30;52639;51.180;20.460;2024-01-07T00:54:53;-4.74;91.42
65864;SHT30;52639;51.180;20.460;2024-01-07T00:58:56;-4.77;91.53
65864;SHT30;52639;51.180;20.460;2024-01-07T01:03:01;-4.80;91.32
65864;SHT30;52639;51.180;20.460;2024-01-07T01:07:04;-4.81;91.74
65864;SHT30;52639;51.180;20.460;2024-01-07T01:11:09;-4.77;92.41
65864;SHT30;52639;51.180;20.460;2024-01-07T01:15:13;-4.81;91.81
65864;SHT30;52639;51.180;20.460;2024-01-07T01:19:19;-4.83;91.85
65864;SHT30;52639;51.180;20.460;2024-01-07T01:23:22;-4.81;92.26
65864;SHT30;52639;51.180;20.460;2024-01-07T01:27:26;-4.81;92.28
65864;SHT30;52639;51.180;20.460;2024-01-07T01:31:28;-4.84;91.90
65864;SHT30;52639;51.180;20.460;2024-01-07T01:35:35;-4.83;92.07
65864;SHT30;52639;51.180;20.460;2024-01-07T01:39:40;-4.84;91.47
65864;SHT30;52639;51.180;20.460;2024-01-07T01:43:43;-4.85;91.90
65864;SHT30;52639;51.180;20.460;2024-01-07T01:47:47;-4.88;91.05
65864;SHT30;52639;51.180;20.460;2024-01-07T01:51:52;-4.91;91.50
65864;SHT30;52639;51.180;20.460;2024-01-07T01:55:57;-4.87;92.09
65864;SHT30;52639;51.180;20.460;2024-01-07T02:00:01;-4.93;91.32
65864;SHT30;52639;51.180;20.460;2024-01-07T02:04:06;-4.94;90.69
65864;SHT30;52639;51.180;20.460;2024-01-07T02:08:13;-4.94;90.55
65864;SHT30;52639;51.180;20.460;2024-01-07T02:12:16;-4.98;90.42
65864;SHT30;52639;51.180;20.460;2024-01-07T02:16:19;-5.00;90.83
65864;SHT30;52639;51.180;20.460;2024-01-07T02:20:23;-5.01;90.35
65864;SHT30;52639;51.180;20.460;2024-01-07T02:24:28;-5.05;90.74
65864;SHT30;52639;51.180;20.460;2024-01-07T02:28:33;-5.04;90.64
65864;SHT30;52639;51.180;20.460;2024-01-07T02:32:36;-5.04;91.33
65864;SHT30;52639;51.180;20.460;2024-01-07T02:36:39;-5.03;91.64
65864;SHT30;52639;51.180;20.460;2024-01-07T02:40:44;-5.00;91.64
65864;SHT30;52639;51.180;20.460;2024-01-07T02:44:47;-5.03;91.61
65864;SHT30;52639;51.180;20.460;2024-01-07T02:48:50;-5.08;90.61
65864;SHT30;52639;51.180;20.460;2024-01-07T02:52:53;-5.12;90.77
65864;SHT30;52639;51.180;20.460;2024-01-07T02:56:57;-5.14;91.30
65864;SHT30;52639;51.180;20.460;2024-01-07T03:01:00;-5.09;91.37
65864;SHT30;52639;51.180;20.460;2024-01-07T03:05:05;-5.14;91.09
65864;SHT30;52639;51.180;20.460;2024-01-07T03:09:08;-5.19;90.81
65864;SHT30;52639;51.180;20.460;2024-01-07T03:13:15;-5.21;90.83
65864;SHT30;52639;51.180;20.460;2024-01-07T03:17:18;-5.18;90.72
65864;SHT30;52639;51.180;20.460;2024-01-07T03:21:23;-5.22;90.34
65864;SHT30;52639;51.180;20.460;2024-01-07T03:25:26;-5.25;90.40
65864;SHT30;52639;51.180;20.460;2024-01-07T03:29:32;-5.22;90.42
65864;SHT30;52639;51.180;20.460;2024-01-07T03:33:37;-5.27;90.06
65864;SHT30;52639;51.180;20.460;2024-01-07T03:38:15;-5.22;90.43
65864;SHT30;52639;51.180;20.460;2024-01-07T03:45:20;-5.24;90.42
65864;SHT30;52639;51.180;20.460;2024-01-07T03:53:21;-5.24;89.19
65864;SHT30;52639;51.180;20.460;2024-01-07T03:57:25;-5.24;89.21
65864;SHT30;52639;51.180;20.460;2024-01-07T04:01:28;-5.28;88.52
65864;SHT30;52639;51.180;20.460;2024-01-07T04:05:30;-5.25;88.94
65864;SHT30;52639;51.180;20.460;2024-01-07T04:09:36;-5.25;87.97
65864;SHT30;52639;51.180;20.460;2024-01-07T04:13:39;-5.21;88.25
65864;SHT30;52639;51.180;20.460;2024-01-07T04:17:42;-5.15;87.93
65864;SHT30;52639;51.180;20.460;2024-01-07T04:21:46;-5.17;87.16
65864;SHT30;52639;51.180;20.460;2024-01-07T04:25:52;-5.18;87.18
65864;SHT30;52639;51.180;20.460;2024-01-07T04:29:55;-5.15;87.62
65864;SHT30;52639;51.180;20.460;2024-01-07T04:38:52;-5.12;86.88
65864;SHT30;52639;51.180;20.460;2024-01-07T04:43:30;-5.17;86.20
65864;SHT30;52639;51.180;20.460;2024-01-07T04:47:33;-5.15;86.93
65864;SHT30;52639;51.180;20.460;2024-01-07T04:51:38;-5.18;86.29
65864;SHT30;52639;51.180;20.460;2024-01-07T04:55:42;-5.22;86.05
65864;SHT30;52639;51.180;20.460;2024-01-07T04:59:48;-5.24;86.56
65864;SHT30;52639;51.180;20.460;2024-01-07T05:03:52;-5.24;87.05
65864;SHT30;52639;51.180;20.460;2024-01-07T05:07:55;-5.24;87.33
65864;SHT30;52639;51.180;20.460;2024-01-07T05:12:00;-5.22;87.12
65864;SHT30;52639;51.180;20.460;2024-01-07T05:16:08;-5.24;87.00
65864;SHT30;52639;51.180;20.460;2024-01-07T05:20:11;-5.25;86.75
65864;SHT30;52639;51.180;20.460;2024-01-07T05:24:14;-5.35;86.48
65864;SHT30;52639;51.180;20.460;2024-01-07T05:28:18;-5.34;87.20
65864;SHT30;52639;51.180;20.460;2024-01-07T05:32:25;-5.29;87.92
65864;SHT30;52639;51.180;20.460;2024-01-07T05:36:28;-5.28;87.63
65864;SHT30;52639;51.180;20.460;2024-01-07T05:40:31;-5.28;87.01
65864;SHT30;52639;51.180;20.460;2024-01-07T05:44:34;-5.31;86.71
65864;SHT30;52639;51.180;20.460;2024-01-07T05:48:45;-5.28;86.84
65864;SHT30;52639;51.180;20.460;2024-01-07T05:52:48;-5.27;86.57
65864;SHT30;52639;51.180;20.460;2024-01-07T05:56:51;-5.32;86.55
65864;SHT30;52639;51.180;20.460;2024-01-07T06:00:57;-5.31;87.15
65864;SHT30;52639;51.180;20.460;2024-01-07T06:05:03;-5.38;86.50
65864;SHT30;52639;51.180;20.460;2024-01-07T06:09:06;-5.39;87.40
65864;SHT30;52639;51.180;20.460;2024-01-07T06:13:10;-5.38;87.86
65864;SHT30;52639;51.180;20.460;2024-01-07T06:17:13;-5.35;87.89
65864;SHT30;52639;51.180;20.460;2024-01-07T06:21:18;-5.46;87.08
65864;SHT30;52639;51.180;20.460;2024-01-07T06:25:46;-5.48;87.31
65864;SHT30;52639;51.180;20.460;2024-01-07T06:29:49;-5.49;87.26
65864;SHT30;52639;51.180;20.460;2024-01-07T06:33:52;-5.46;87.36
65864;SHT30;52639;51.180;20.460;2024-01-07T06:37:58;-5.48;87.20
65864;SHT30;52639;51.180;20.460;2024-01-07T06:42:01;-5.46;87.40
65864;SHT30;52639;51.180;20.460;2024-01-07T06:46:04;-5.48;87.70
65864;SHT30;52639;51.180;20.460;2024-01-07T06:50:09;-5.49;87.82
65864;SHT30;52639;51.180;20.460;2024-01-07T06:54:14;-5.55;88.28
65864;SHT30;52639;51.180;20.460;2024-01-07T06:58:17;-5.51;88.66
65864;SHT30;52639;51.180;20.460;2024-01-07T07:02:20;-5.48;89.33
65864;SHT30;52639;51.180;20.460;2024-01-07T07:06:25;-5.46;89.27
65864;SHT30;52639;51.180;20.460;2024-01-07T07:10:31;-5.48;90.30
65864;SHT30;52639;51.180;20.460;2024-01-07T07:14:34;-5.58;89.96
65864;SHT30;52639;51.180;20.460;2024-01-07T07:18:43;-5.51;90.84
65864;SHT30;52639;51.180;20.460;2024-01-07T07:22:46;-5.42;91.08
65864;SHT30;52639;51.180;20.460;2024-01-07T07:26:52;-5.54;90.50
65864;SHT30;52639;51.180;20.460;2024-01-07T07:30:57;-5.51;90.70
65864;SHT30;52639;51.180;20.460;2024-01-07T07:35:01;-5.45;90.80
65864;SHT30;52639;51.180;20.460;2024-01-07T07:44:48;-5.45;91.07
65864;SHT30;52639;51.180;20.460;2024-01-07T07:48:54;-5.46;89.98
65864;SHT30;52639;51.180;20.460;2024-01-07T07:52:57;-5.39;90.16
65864;SHT30;52639;51.180;20.460;2024-01-07T07:57:00;-5.45;89.61
65864;SHT30;52639;51.180;20.460;2024-01-07T08:01:05;-5.42;89.72
65864;SHT30;52639;51.180;20.460;2024-01-07T08:05:09;-5.42;89.78
65864;SHT30;52639;51.180;20.460;2024-01-07T08:09:12;-5.54;89.70
65864;SHT30;52639;51.180;20.460;2024-01-07T08:13:16;-5.43;90.33
65864;SHT30;52639;51.180;20.460;2024-01-07T08:17:20;-5.42;89.37
65864;SHT30;52639;51.180;20.460;2024-01-07T08:21:23;-5.28;89.77
65864;SHT30;52639;51.180;20.460;2024-01-07T08:29:36;-5.19;89.12
65864;SHT30;52639;51.180;20.460;2024-01-07T08:33:41;-5.09;90.70
65864;SHT30;52639;51.180;20.460;2024-01-07T08:37:46;-5.09;89.25
65864;SHT30;52639;51.180;20.460;2024-01-07T08:41:50;-4.98;89.99
65864;SHT30;52639;51.180;20.460;2024-01-07T08:45:55;-5.05;88.65
65864;SHT30;52639;51.180;20.460;2024-01-07T08:50:01;-5.05;89.09
65864;SHT30;52639;51.180;20.460;2024-01-07T08:54:04;-5.09;88.41
65864;SHT30;52639;51.180;20.460;2024-01-07T08:58:08;-5.04;88.60
65864;SHT30;52639;51.180;20.460;2024-01-07T09:02:10;-4.90;89.31
65864;SHT30;52639;51.180;20.460;2024-01-07T09:06:14;-4.73;89.12
65864;SHT30;52639;51.180;20.460;2024-01-07T09:10:17;-4.77;88.52
65864;SHT30;52639;51.180;20.460;2024-01-07T09:14:22;-4.69;88.39
65864;SHT30;52639;51.180;20.460;2024-01-07T09:18:26;-4.63;86.90
65864;SHT30;52639;51.180;20.460;2024-01-07T09:22:31;-4.84;87.47
65864;SHT30;52639;51.180;20.460;2024-01-07T09:26:34;-4.79;88.67
65864;SHT30;52639;51.180;20.460;2024-01-07T09:30:37;-4.59;88.55
65864;SHT30;52639;51.180;20.460;2024-01-07T09:34:40;-4.42;87.55
65864;SHT30;52639;51.180;20.460;2024-01-07T09:38:44;-4.32;88.59
65864;SHT30;52639;51.180;20.460;2024-01-07T09:42:47;-4.30;86.87
65864;SHT30;52639;51.180;20.460;2024-01-07T09:46:51;-4.59;86.49
65864;SHT30;52639;51.180;20.460;2024-01-07T09:50:55;-4.67;86.16
65864;SHT30;52639;51.180;20.460;2024-01-07T09:55:03;-4.61;87.91
65864;SHT30;52639;51.180;20.460;2024-01-07T09:59:07;-4.53;87.40
65864;SHT30;52639;51.180;20.460;2024-01-07T10:03:13;-4.49;85.06
65864;SHT30;52639;51.180;20.460;2024-01-07T10:07:16;-4.37;85.56
65864;SHT30;52639;51.180;20.460;2024-01-07T10:11:21;-4.56;84.90
65864;SHT30;52639;51.180;20.460;2024-01-07T10:15:27;-4.85;85.65
65864;SHT30;52639;51.180;20.460;2024-01-07T10:19:30;-4.60;86.80
65864;SHT30;52639;51.180;20.460;2024-01-07T10:23:34;-4.46;86.32
65864;SHT30;52639;51.180;20.460;2024-01-07T10:27:38;-4.15;86.93
65864;SHT30;52639;51.180;20.460;2024-01-07T10:31:43;-4.28;83.95
65864;SHT30;52639;51.180;20.460;2024-01-07T10:35:51;-4.40;84.11
65864;SHT30;52639;51.180;20.460;2024-01-07T10:39:58;-4.61;84.20
65864;SHT30;52639;51.180;20.460;2024-01-07T10:44:08;-4.69;84.74
65864;SHT30;52639;51.180;20.460;2024-01-07T10:48:13;-4.43;86.17
65864;SHT30;52639;51.180;20.460;2024-01-07T10:52:20;-4.54;85.53
65864;SHT30;52639;51.180;20.460;2024-01-07T10:56:28;-4.66;85.28
65864;SHT30;52639;51.180;20.460;2024-01-07T11:00:33;-4.63;86.43
65864;SHT30;52639;51.180;20.460;2024-01-07T11:04:42;-4.64;86.53
65864;SHT30;52639;51.180;20.460;2024-01-07T11:08:54;-4.83;85.84
65864;SHT30;52639;51.180;20.460;2024-01-07T11:12:58;-4.66;88.19
65864;SHT30;52639;51.180;20.460;2024-01-07T11:17:03;-4.69;86.01
65864;SHT30;52639;51.180;20.460;2024-01-07T11:21:09;-4.93;85.68
65864;SHT30;52639;51.180;20.460;2024-01-07T11:25:31;-4.98;86.82
65864;SHT30;52639;51.180;20.460;2024-01-07T11:29:55;-5.07;87.22
65864;SHT30;52639;51.180;20.460;2024-01-07T11:34:00;-4.63;88.08
65864;SHT30;52639;51.180;20.460;2024-01-07T11:38:04;-4.79;86.43
65864;SHT30;52639;51.180;20.460;2024-01-07T11:42:07;-4.97;85.52
65864;SHT30;52639;51.180;20.460;2024-01-07T11:46:11;-5.28;86.28
65864;SHT30;52639;51.180;20.460;2024-01-07T11:50:16;-5.12;87.14
65864;SHT30;52639;51.180;20.460;2024-01-07T11:54:20;-5.28;86.25
65864;SHT30;52639;51.180;20.460;2024-01-07T11:58:23;-5.01;87.48
65864;SHT30;52639;51.180;20.460;2024-01-07T12:02:26;-5.31;86.78
65864;SHT30;52639;51.180;20.460;2024-01-07T12:06:34;-5.14;87.68
65864;SHT30;52639;51.180;20.460;2024-01-07T12:10:38;-5.42;86.02
65864;SHT30;52639;51.180;20.460;2024-01-07T12:14:41;-5.56;86.17
65864;SHT30;52639;51.180;20.460;2024-01-07T12:18:44;-5.56;87.19
65864;SHT30;52639;51.180;20.460;2024-01-07T12:22:48;-5.83;87.07
65864;SHT30;52639;51.180;20.460;2024-01-07T12:26:51;-5.76;87.28
65864;SHT30;52639;51.180;20.460;2024-01-07T12:30:55;-5.80;86.25
65864;SHT30;52639;51.180;20.460;2024-01-07T12:34:58;-5.60;87.55
65864;SHT30;52639;51.180;20.460;2024-01-07T12:39:06;-5.68;87.15
65864;SHT30;52639;51.180;20.460;2024-01-07T12:43:09;-5.62;87.61
65864;SHT30;52639;51.180;20.460;2024-01-07T12:47:12;-5.89;86.41
65864;SHT30;52639;51.180;20.460;2024-01-07T12:51:16;-5.92;86.86
65864;SHT30;52639;51.180;20.460;2024-01-07T13:05:10;-5.96;86.03
65864;SHT30;52639;51.180;20.460;2024-01-07T13:09:13;-6.10;86.72
65864;SHT30;52639;51.180;20.460;2024-01-07T13:13:16;-6.10;87.43
65864;SHT30;52639;51.180;20.460;2024-01-07T13:17:19;-6.17;86.89
65864;SHT30;52639;51.180;20.460;2024-01-07T13:21:25;-6.15;88.29
65864;SHT30;52639;51.180;20.460;2024-01-07T13:25:28;-6.18;88.16
65864;SHT30;52639;51.180;20.460;2024-01-07T13:29:31;-6.13;88.09
65864;SHT30;52639;51.180;20.460;2024-01-07T13:33:35;-6.10;88.49
65864;SHT30;52639;51.180;20.460;2024-01-07T13:37:39;-6.15;88.05
65864;SHT30;52639;51.180;20.460;2024-01-07T13:41:44;-6.30;88.39
65864;SHT30;52639;51.180;20.460;2024-01-07T13:45:47;-6.20;88.91
65864;SHT30;52639;51.180;20.460;2024-01-07T13:49:50;-6.23;89.18
65864;SHT30;52639;51.180;20.460;2024-01-07T13:53:54;-6.38;88.68
65864;SHT30;52639;51.180;20.460;2024-01-07T13:57:57;-6.37;89.34
65864;SHT30;52639;51.180;20.460;2024-01-07T14:02:00;-6.33;90.24
65864;SHT30;52639;51.180;20.460;2024-01-07T14:06:04;-6.37;90.46
65864;SHT30;52639;51.180;20.460;2024-01-07T14:10:09;-6.42;90.52
65864;SHT30;52639;51.180;20.460;2024-01-07T14:14:12;-6.48;90.64
65864;SHT30;52639;51.180;20.460;2024-01-07T14:18:17;-6.57;90.90
65864;SHT30;52639;51.180;20.460;2024-01-07T14:22:23;-6.64;90.56
65864;SHT30;52639;51.180;20.460;2024-01-07T14:26:28;-6.61;91.38
65864;SHT30;52639;51.180;20.460;2024-01-07T14:30:31;-6.69;91.66
65864;SHT30;52639;51.180;20.460;2024-01-07T14:34:37;-6.67;92.24
65864;SHT30;52639;51.180;20.460;2024-01-07T14:38:41;-6.72;92.10
65864;SHT30;52639;51.180;20.460;2024-01-07T14:42:47;-6.71;92.40
65864;SHT30;52639;51.180;20.460;2024-01-07T14:46:50;-6.77;91.79
65864;SHT30;52639;51.180;20.460;2024-01-07T14:50:53;-6.82;91.41
65864;SHT30;52639;51.180;20.460;2024-01-07T14:54:56;-6.84;91.70
65864;SHT30;52639;51.180;20.460;2024-01-07T14:59:02;-6.84;92.18
65864;SHT30;52639;51.180;20.460;2024-01-07T15:03:05;-6.84;92.52
65864;SHT30;52639;51.180;20.460;2024-01-07T15:07:09;-6.81;92.63
65864;SHT30;52639;51.180;20.460;2024-01-07T15:11:12;-6.85;91.64
65864;SHT30;52639;51.180;20.460;2024-01-07T15:15:18;-6.91;91.82
65864;SHT30;52639;51.180;20.460;2024-01-07T15:19:22;-6.93;91.50
65864;SHT30;52639;51.180;20.460;2024-01-07T15:23:28;-6.88;91.90
65864;SHT30;52639;51.180;20.460;2024-01-07T15:27:32;-6.92;91.61
65864;SHT30;52639;51.180;20.460;2024-01-07T15:31:37;-6.93;91.88
65864;SHT30;52639;51.180;20.460;2024-01-07T15:35:41;-6.89;92.10
65864;SHT30;52639;51.180;20.460;2024-01-07T15:44:55;-6.91;92.41
65864;SHT30;52639;51.180;20.460;2024-01-07T15:49:00;-6.98;91.90
65864;SHT30;52639;51.180;20.460;2024-01-07T15:53:03;-7.01;92.27
65864;SHT30;52639;51.180;20.460;2024-01-07T15:57:07;-7.06;92.36
65864;SHT30;52639;51.180;20.460;2024-01-07T16:01:10;-7.11;91.95
65864;SHT30;52639;51.180;20.460;2024-01-07T16:05:18;-7.11;92.15
65864;SHT30;52639;51.180;20.460;2024-01-07T16:09:21;-7.15;92.08
65864;SHT30;52639;51.180;20.460;2024-01-07T16:13:26;-7.15;92.43
65864;SHT30;52639;51.180;20.460;2024-01-07T16:17:32;-7.15;92.43
65864;SHT30;52639;51.180;20.460;2024-01-07T16:21:37;-7.13;92.53
65864;SHT30;52639;51.180;20.460;2024-01-07T16:25:41;-7.12;92.54
65864;SHT30;52639;51.180;20.460;2024-01-07T16:29:44;-7.15;92.15
65864;SHT30;52639;51.180;20.460;2024-01-07T16:33:48;-7.18;92.57
65864;SHT30;52639;51.180;20.460;2024-01-07T16:37:53;-7.20;91.87
65864;SHT30;52639;51.180;20.460;2024-01-07T16:41:57;-7.23;92.24
65864;SHT30;52639;51.180;20.460;2024-01-07T16:46:03;-7.20;92.05
65864;SHT30;52639;51.180;20.460;2024-01-07T16:50:07;-7.22;91.78
65864;SHT30;52639;51.180;20.460;2024-01-07T16:54:19;-7.27;92.02
65864;SHT30;52639;51.180;20.460;2024-01-07T16:58:25;-7.32;91.67
65864;SHT30;52639;51.180;20.460;2024-01-07T17:02:28;-7.36;92.02
65864;SHT30;52639;51.180;20.460;2024-01-07T17:06:31;-7.34;92.23
65864;SHT30;52639;51.180;20.460;2024-01-07T17:10:36;-7.43;91.73
65864;SHT30;52639;51.180;20.460;2024-01-07T17:14:41;-7.42;91.78
65864;SHT30;52639;51.180;20.460;2024-01-07T17:18:44;-7.51;91.12
65864;SHT30;52639;51.180;20.460;2024-01-07T17:22:47;-7.53;91.58
65864;SHT30;52639;51.180;20.460;2024-01-07T17:26:56;-7.47;91.89
65864;SHT30;52639;51.180;20.460;2024-01-07T17:31:01;-7.46;92.22
65864;SHT30;52639;51.180;20.460;2024-01-07T17:35:05;-7.58;91.26
65864;SHT30;52639;51.180;20.460;2024-01-07T17:39:09;-7.61;91.46
65864;SHT30;52639;51.180;20.460;2024-01-07T17:43:17;-7.61;91.34
65864;SHT30;52639;51.180;20.460;2024-01-07T17:47:19;-7.58;91.75
65864;SHT30;52639;51.180;20.460;2024-01-07T17:51:23;-7.60;91.25
65864;SHT30;52639;51.180;20.460;2024-01-07T17:55:25;-7.63;91.12
65864;SHT30;52639;51.180;20.460;2024-01-07T17:59:32;-7.64;91.06
65864;SHT30;52639;51.180;20.460;2024-01-07T18:03:37;-7.69;90.77
65864;SHT30;52639;51.180;20.460;2024-01-07T18:07:40;-7.73;90.41
65864;SHT30;52639;51.180;20.460;2024-01-07T18:11:43;-7.69;90.74
65864;SHT30;52639;51.180;20.460;2024-01-07T18:15:47;-7.74;90.07
65864;SHT30;52639;51.180;20.460;2024-01-07T18:19:50;-7.87;89.54
65864;SHT30;52639;51.180;20.460;2024-01-07T18:23:53;-7.84;90.01
65864;SHT30;52639;51.180;20.460;2024-01-07T18:27:56;-7.91;88.71
65864;SHT30;52639;51.180;20.460;2024-01-07T18:32:01;-7.95;88.29
65864;SHT30;52639;51.180;20.460;2024-01-07T18:36:07;-7.95;88.63
65864;SHT30;52639;51.180;20.460;2024-01-07T18:40:14;-7.94;89.12
65864;SHT30;52639;51.180;20.460;2024-01-07T18:44:26;-8.02;89.14
65864;SHT30;52639;51.180;20.460;2024-01-07T18:48:32;-8.07;89.19
65864;SHT30;52639;51.180;20.460;2024-01-07T18:52:35;-8.17;89.42
65864;SHT30;52639;51.180;20.460;2024-01-07T18:56:39;-8.18;90.09
65864;SHT30;52639;51.180;20.460;2024-01-07T19:00:44;-8.29;89.65
65864;SHT30;52639;51.180;20.460;2024-01-07T19:04:52;-8.31;89.34
65864;SHT30;52639;51.180;20.460;2024-01-07T19:08:56;-8.35;89.27
65864;SHT30;52639;51.180;20.460;2024-01-07T19:13:03;-8.38;89.25
65864;SHT30;52639;51.180;20.460;2024-01-07T19:17:07;-8.31;89.95
65864;SHT30;52639;51.180;20.460;2024-01-07T19:21:16;-8.35;89.22
65864;SHT30;52639;51.180;20.460;2024-01-07T19:25:44;-8.43;89.19
65864;SHT30;52639;51.180;20.460;2024-01-07T19:29:50;-8.38;89.86
65864;SHT30;52639;51.180;20.460;2024-01-07T19:33:55;-8.46;88.93
65864;SHT30;52639;51.180;20.460;2024-01-07T19:37:59;-8.56;88.69
65864;SHT30;52639;51.180;20.460;2024-01-07T19:42:03;-8.59;89.15
65864;SHT30;52639;51.180;20.460;2024-01-07T19:46:06;-8.60;89.66
65864;SHT30;52639;51.180;20.460;2024-01-07T19:50:09;-8.66;89.53
65864;SHT30;52639;51.180;20.460;2024-01-07T19:54:16;-8.65;89.78
65864;SHT30;52639;51.180;20.460;2024-01-07T19:58:21;-8.69;89.68
65864;SHT30;52639;51.180;20.460;2024-01-07T20:02:24;-8.69;90.11
65864;SHT30;52639;51.180;20.460;2024-01-07T20:06:30;-8.67;89.87
65864;SHT30;52639;51.180;20.460;2024-01-07T20:10:35;-8.63;89.86
65864;SHT30;52639;51.180;20.460;2024-01-07T20:14:39;-8.75;89.16
65864;SHT30;52639;51.180;20.460;2024-01-07T20:18:43;-8.80;89.23
65864;SHT30;52639;51.180;20.460;2024-01-07T20:22:47;-8.85;88.99
65864;SHT30;52639;51.180;20.460;2024-01-07T20:26:52;-8.92;89.02
65864;SHT30;52639;51.180;20.460;2024-01-07T20:30:56;-8.92;89.83
65864;SHT30;52639;51.180;20.460;2024-01-07T20:35:02;-8.92;89.81
65864;SHT30;52639;51.180;20.460;2024-01-07T20:39:05;-9.00;89.64
65864;SHT30;52639;51.180;20.460;2024-01-07T20:48:30;-9.04;90.40
65864;SHT30;52639;51.180;20.460;2024-01-07T20:52:34;-9.17;88.82
65864;SHT30;52639;51.180;20.460;2024-01-07T20:56:41;-9.27;88.79
65864;SHT30;52639;51.180;20.460;2024-01-07T21:00:43;-9.28;89.64
65864;SHT30;52639;51.180;20.460;2024-01-07T21:04:49;-9.32;88.67
65864;SHT30;52639;51.180;20.460;2024-01-07T21:08:54;-9.37;89.29
65864;SHT30;52639;51.180;20.460;2024-01-07T21:12:57;-9.44;88.92
65864;SHT30;52639;51.180;20.460;2024-01-07T21:17:01;-9.51;88.72
65864;SHT30;52639;51.180;20.460;2024-01-07T21:21:06;-9.58;88.70
65864;SHT30;52639;51.180;20.460;2024-01-07T21:25:11;-9.61;89.24
65864;SHT30;52639;51.180;20.460;2024-01-07T21:29:16;-9.61;89.73
65864;SHT30;52639;51.180;20.460;2024-01-07T21:33:25;-9.64;89.41
65864;SHT30;52639;51.180;20.460;2024-01-07T21:38:14;-9.62;89.77
65864;SHT30;52639;51.180;20.460;2024-01-07T21:42:17;-9.56;90.22
65864;SHT30;52639;51.180;20.460;2024-01-07T21:46:20;-9.66;89.17
65864;SHT30;52639;51.180;20.460;2024-01-07T21:50:23;-9.65;89.38
65864;SHT30;52639;51.180;20.460;2024-01-07T21:54:28;-9.65;89.37
65864;SHT30;52639;51.180;20.460;2024-01-07T21:58:32;-9.66;88.79
65864;SHT30;52639;51.180;20.460;2024-01-07T22:02:35;-9.71;88.27
65864;SHT30;52639;51.180;20.460;2024-01-07T22:06:40;-9.69;88.64
65864;SHT30;52639;51.180;20.460;2024-01-07T22:10:44;-9.71;88.46
65864;SHT30;52639;51.180;20.460;2024-01-07T22:28:50;-9.74;87.91
65864;SHT30;52639;51.180;20.460;2024-01-07T22:32:53;-9.68;88.14
65864;SHT30;52639;51.180;20.460;2024-01-07T22:36:57;-9.76;87.55
65864;SHT30;52639;51.180;20.460;2024-01-07T22:41:00;-9.82;87.41
65864;SHT30;52639;51.180;20.460;2024-01-07T22:45:06;-9.82;87.13
65864;SHT30;52639;51.180;20.460;2024-01-07T22:49:11;-9.78;87.29
65864;SHT30;52639;51.180;20.460;2024-01-07T22:53:14;-9.81;86.91
65864;SHT30;52639;51.180;20.460;2024-01-07T22:57:18;-9.76;87.45
65864;SHT30;52639;51.180;20.460;2024-01-07T23:11:52;-9.94;86.50
65864;SHT30;52639;51.180;20.460;2024-01-07T23:15:55;-9.98;86.47
65864;SHT30;52639;51.180;20.460;2024-01-07T23:19:58;-9.88;86.65
65864;SHT30;52639;51.180;20.460;2024-01-07T23:29:14;-9.99;85.77
65864;SHT30;52639;51.180;20.460;2024-01-07T23:33:16;-10.01;85.43
65864;SHT30;52639;51.180;20.460;2024-01-07T23:37:19;-10.03;83.71
65864;SHT30;52639;51.180;20.460;2024-01-07T23:41:25;-10.03;83.78
65864;SHT30;52639;51.180;20.460;2024-01-07T23:45:30;-10.05;83.70
65864;SHT30;52639;51.180;20.460;2024-01-07T23:49:33;-10.06;83.27
65864;SHT30;52639;51.180;20.460;2024-01-07T23:53:36;-9.99;84.33
65864;SHT30;52639;51.180;20.460;2024-01-07T23:57:39;-9.86;84.35
